sensor_id;sensor_type;location;lat;lon;timestamp;P1;durP1;ratioP1;P2;durP2;ratioP2
53271;SDS011;39160;48.580;7.756;2023-08-24T00:00:18;4.88;;;4.13;;
53271;SDS011;39160;48.580;7.756;2023-08-24T00:05:09;7.68;;;4.72;;
53271;SDS011;39160;48.580;7.756;2023-08-24T00:09:59;7.93;;;4.25;;
53271;SDS011;39160;48.580;7.756;2023-08-24T00:14:50;4.60;;;3.97;;
53271;SDS011;39160;48.580;7.756;2023-08-24T00:19:41;4.60;;;4.10;;
53271;SDS011;39160;48.580;7.756;2023-08-24T00:24:31;4.15;;;3.75;;
53271;SDS011;39160;48.580;7.756;2023-08-24T00:29:22;4.93;;;3.65;;
53271;SDS011;39160;48.580;7.756;2023-08-24T00:34:12;5.72;;;4.20;;
53271;SDS011;39160;48.580;7.756;2023-08-24T00:39:03;7.07;;;4.50;;
53271;SDS011;39160;48.580;7.756;2023-08-24T00:43:54;5.38;;;3.92;;
53271;SDS011;39160;48.580;7.756;2023-08-24T00:48:45;5.05;;;4.07;;
53271;SDS011;39160;48.580;7.756;2023-08-24T00:53:36;4.78;;;3.88;;
53271;SDS011;39160;48.580;7.756;2023-08-24T00:58:28;6.22;;;4.05;;
53271;SDS011;39160;48.580;7.756;2023-08-24T01:03:18;7.97;;;4.50;;
53271;SDS011;39160;48.580;7.756;2023-08-24T01:08:12;8.30;;;4.43;;
53271;SDS011;39160;48.580;7.756;2023-08-24T01:17:59;5.03;;;4.53;;
53271;SDS011;39160;48.580;7.756;2023-08-24T01:28:26;10.10;;;6.88;;
53271;SDS011;39160;48.580;7.756;2023-08-24T01:33:17;8.00;;;6.85;;
53271;SDS011;39160;48.580;7.756;2023-08-24T01:38:09;9.20;;;5.40;;
53271;SDS011;39160;48.580;7.756;2023-08-24T01:43:03;5.47;;;4.70;;
53271;SDS011;39160;48.580;7.756;2023-08-24T01:47:57;5.28;;;4.20;;
53271;SDS011;39160;48.580;7.756;2023-08-24T01:52:52;5.53;;;3.67;;
53271;SDS011;39160;48.580;7.756;2023-08-24T01:57:43;6.70;;;4.97;;
53271;SDS011;39160;48.580;7.756;2023-08-24T02:02:34;5.03;;;3.50;;
53271;SDS011;39160;48.580;7.756;2023-08-24T02:07:25;6.55;;;4.18;;
53271;SDS011;39160;48.580;7.756;2023-08-24T02:12:16;5.45;;;4.47;;
53271;SDS011;39160;48.580;7.756;2023-08-24T02:17:06;6.95;;;4.50;;
53271;SDS011;39160;48.580;7.756;2023-08-24T02:21:57;4.00;;;3.70;;
53271;SDS011;39160;48.580;7.756;2023-08-24T02:26:48;4.88;;;3.72;;
53271;SDS011;39160;48.580;7.756;2023-08-24T02:31:38;4.95;;;4.18;;
53271;SDS011;39160;48.580;7.756;2023-08-24T02:36:30;4.32;;;3.83;;
53271;SDS011;39160;48.580;7.756;2023-08-24T02:41:23;6.40;;;3.70;;
53271;SDS011;39160;48.580;7.756;2023-08-24T02:46:13;5.13;;;4.20;;
53271;SDS011;39160;48.580;7.756;2023-08-24T02:51:04;4.75;;;4.22;;
53271;SDS011;39160;48.580;7.756;2023-08-24T02:55:56;6.78;;;4.10;;
53271;SDS011;39160;48.580;7.756;2023-08-24T03:00:47;8.48;;;4.40;;
53271;SDS011;39160;48.580;7.756;2023-08-24T03:05:37;5.28;;;4.07;;
53271;SDS011;39160;48.580;7.756;2023-08-24T03:10:28;4.93;;;4.43;;
53271;SDS011;39160;48.580;7.756;2023-08-24T03:15:18;8.15;;;4.43;;
53271;SDS011;39160;48.580;7.756;2023-08-24T03:20:09;5.60;;;4.60;;
53271;SDS011;39160;48.580;7.756;2023-08-24T03:25:01;5.10;;;4.50;;
53271;SDS011;39160;48.580;7.756;2023-08-24T03:29:53;6.20;;;5.18;;
53271;SDS011;39160;48.580;7.756;2023-08-24T03:34:43;6.25;;;4.93;;
53271;SDS011;39160;48.580;7.756;2023-08-24T03:39:36;8.00;;;4.65;;
53271;SDS011;39160;48.580;7.756;2023-08-24T03:44:27;6.63;;;4.90;;
53271;SDS011;39160;48.580;7.756;2023-08-24T03:49:18;6.30;;;4.68;;
53271;SDS011;39160;48.580;7.756;2023-08-24T03:54:08;5.63;;;4.53;;
53271;SDS011;39160;48.580;7.756;2023-08-24T03:58:59;5.07;;;4.57;;
53271;SDS011;39160;48.580;7.756;2023-08-24T04:03:50;7.75;;;4.75;;
53271;SDS011;39160;48.580;7.756;2023-08-24T04:08:41;6.90;;;4.60;;
53271;SDS011;39160;48.580;7.756;2023-08-24T04:13:31;7.50;;;5.20;;
53271;SDS011;39160;48.580;7.756;2023-08-24T04:18:22;6.22;;;5.35;;
53271;SDS011;39160;48.580;7.756;2023-08-24T04:23:13;6.30;;;5.25;;
53271;SDS011;39160;48.580;7.756;2023-08-24T04:28:04;9.73;;;5.40;;
53271;SDS011;39160;48.580;7.756;2023-08-24T04:32:55;7.82;;;5.38;;
53271;SDS011;39160;48.580;7.756;2023-08-24T04:37:45;7.63;;;4.78;;
53271;SDS011;39160;48.580;7.756;2023-08-24T04:42:36;11.88;;;5.10;;
53271;SDS011;39160;48.580;7.756;2023-08-24T04:47:27;5.35;;;4.80;;
53271;SDS011;39160;48.580;7.756;2023-08-24T04:52:17;5.20;;;4.70;;
53271;SDS011;39160;48.580;7.756;2023-08-24T04:57:08;6.00;;;4.88;;
53271;SDS011;39160;48.580;7.756;2023-08-24T05:01:59;6.03;;;5.13;;
53271;SDS011;39160;48.580;7.756;2023-08-24T05:06:49;6.10;;;4.82;;
53271;SDS011;39160;48.580;7.756;2023-08-24T05:11:40;5.70;;;4.32;;
53271;SDS011;39160;48.580;7.756;2023-08-24T05:16:30;5.30;;;4.20;;
53271;SDS011;39160;48.580;7.756;2023-08-24T05:21:21;7.13;;;4.78;;
53271;SDS011;39160;48.580;7.756;2023-08-24T05:26:12;4.35;;;3.95;;
53271;SDS011;39160;48.580;7.756;2023-08-24T05:31:02;10.70;;;3.90;;
53271;SDS011;39160;48.580;7.756;2023-08-24T05:35:53;5.20;;;3.92;;
53271;SDS011;39160;48.580;7.756;2023-08-24T05:40:46;5.05;;;4.20;;
53271;SDS011;39160;48.580;7.756;2023-08-24T05:45:38;4.93;;;3.60;;
53271;SDS011;39160;48.580;7.756;2023-08-24T05:50:33;5.78;;;3.70;;
53271;SDS011;39160;48.580;7.756;2023-08-24T05:55:24;4.97;;;3.83;;
53271;SDS011;39160;48.580;7.756;2023-08-24T06:00:15;5.85;;;3.42;;
53271;SDS011;39160;48.580;7.756;2023-08-24T06:05:06;6.05;;;4.13;;
53271;SDS011;39160;48.580;7.756;2023-08-24T06:09:57;5.45;;;3.80;;
53271;SDS011;39160;48.580;7.756;2023-08-24T06:14:48;5.68;;;3.95;;
53271;SDS011;39160;48.580;7.756;2023-08-24T06:19:38;6.15;;;3.97;;
53271;SDS011;39160;48.580;7.756;2023-08-24T06:24:29;6.55;;;3.00;;
53271;SDS011;39160;48.580;7.756;2023-08-24T06:29:20;10.73;;;3.08;;
53271;SDS011;39160;48.580;7.756;2023-08-24T06:34:10;4.25;;;3.35;;
53271;SDS011;39160;48.580;7.756;2023-08-24T06:39:01;4.70;;;3.33;;
53271;SDS011;39160;48.580;7.756;2023-08-24T06:43:54;4.40;;;3.75;;
53271;SDS011;39160;48.580;7.756;2023-08-24T06:48:45;4.88;;;3.10;;
53271;SDS011;39160;48.580;7.756;2023-08-24T06:53:36;6.30;;;3.75;;
53271;SDS011;39160;48.580;7.756;2023-08-24T06:58:26;8.10;;;4.05;;
53271;SDS011;39160;48.580;7.756;2023-08-24T07:03:17;5.25;;;3.55;;
53271;SDS011;39160;48.580;7.756;2023-08-24T07:08:08;5.82;;;3.25;;
53271;SDS011;39160;48.580;7.756;2023-08-24T07:12:59;5.40;;;3.42;;
53271;SDS011;39160;48.580;7.756;2023-08-24T07:17:50;5.10;;;3.30;;
53271;SDS011;39160;48.580;7.756;2023-08-24T07:22:40;6.22;;;3.17;;
53271;SDS011;39160;48.580;7.756;2023-08-24T07:27:31;3.90;;;3.05;;
53271;SDS011;39160;48.580;7.756;2023-08-24T07:32:23;5.18;;;3.22;;
53271;SDS011;39160;48.580;7.756;2023-08-24T07:37:14;4.07;;;3.50;;
53271;SDS011;39160;48.580;7.756;2023-08-24T07:42:05;5.60;;;3.33;;
53271;SDS011;39160;48.580;7.756;2023-08-24T07:46:55;5.38;;;3.90;;
53271;SDS011;39160;48.580;7.756;2023-08-24T07:51:46;5.78;;;3.42;;
53271;SDS011;39160;48.580;7.756;2023-08-24T07:56:37;5.35;;;3.45;;
53271;SDS011;39160;48.580;7.756;2023-08-24T08:01:28;10.82;;;3.88;;
53271;SDS011;39160;48.580;7.756;2023-08-24T08:06:18;7.55;;;4.20;;
53271;SDS011;39160;48.580;7.756;2023-08-24T08:11:11;5.68;;;3.72;;
53271;SDS011;39160;48.580;7.756;2023-08-24T08:16:03;6.72;;;3.53;;
53271;SDS011;39160;48.580;7.756;2023-08-24T08:20:54;5.68;;;3.17;;
53271;SDS011;39160;48.580;7.756;2023-08-24T08:25:45;4.53;;;3.22;;
53271;SDS011;39160;48.580;7.756;2023-08-24T08:30:36;4.97;;;4.03;;
53271;SDS011;39160;48.580;7.756;2023-08-24T08:35:26;4.68;;;3.67;;
53271;SDS011;39160;48.580;7.756;2023-08-24T08:40:17;4.32;;;3.83;;
53271;SDS011;39160;48.580;7.756;2023-08-24T08:45:08;10.55;;;5.60;;
53271;SDS011;39160;48.580;7.756;2023-08-24T08:50:01;4.70;;;3.88;;
53271;SDS011;39160;48.580;7.756;2023-08-24T08:54:55;5.60;;;4.03;;
53271;SDS011;39160;48.580;7.756;2023-08-24T08:59:46;4.63;;;3.65;;
53271;SDS011;39160;48.580;7.756;2023-08-24T09:04:40;4.03;;;3.63;;
53271;SDS011;39160;48.580;7.756;2023-08-24T09:09:32;8.23;;;4.90;;
53271;SDS011;39160;48.580;7.756;2023-08-24T09:14:23;5.85;;;3.55;;
53271;SDS011;39160;48.580;7.756;2023-08-24T09:19:14;4.32;;;3.78;;
53271;SDS011;39160;48.580;7.756;2023-08-24T09:24:05;9.00;;;4.18;;
53271;SDS011;39160;48.580;7.756;2023-08-24T09:28:59;4.53;;;4.07;;
53271;SDS011;39160;48.580;7.756;2023-08-24T09:33:51;9.15;;;3.75;;
53271;SDS011;39160;48.580;7.756;2023-08-24T09:38:50;6.38;;;3.80;;
53271;SDS011;39160;48.580;7.756;2023-08-24T09:43:42;6.13;;;3.55;;
53271;SDS011;39160;48.580;7.756;2023-08-24T09:48:32;5.30;;;3.78;;
53271;SDS011;39160;48.580;7.756;2023-08-24T09:53:23;6.53;;;5.20;;
53271;SDS011;39160;48.580;7.756;2023-08-24T09:58:15;7.20;;;4.43;;
53271;SDS011;39160;48.580;7.756;2023-08-24T10:03:06;5.43;;;3.40;;
53271;SDS011;39160;48.580;7.756;2023-08-24T10:07:58;4.38;;;3.97;;
53271;SDS011;39160;48.580;7.756;2023-08-24T10:12:50;4.40;;;4.00;;
53271;SDS011;39160;48.580;7.756;2023-08-24T10:17:42;4.70;;;3.90;;
53271;SDS011;39160;48.580;7.756;2023-08-24T10:22:35;6.68;;;4.07;;
53271;SDS011;39160;48.580;7.756;2023-08-24T10:27:29;6.45;;;3.67;;
53271;SDS011;39160;48.580;7.756;2023-08-24T10:32:20;4.85;;;3.85;;
53271;SDS011;39160;48.580;7.756;2023-08-24T10:37:13;7.07;;;4.15;;
53271;SDS011;39160;48.580;7.756;2023-08-24T10:42:04;4.28;;;3.88;;
53271;SDS011;39160;48.580;7.756;2023-08-24T10:47:11;5.45;;;4.43;;
53271;SDS011;39160;48.580;7.756;2023-08-24T10:52:20;9.70;;;4.47;;
53271;SDS011;39160;48.580;7.756;2023-08-24T10:57:31;5.80;;;4.47;;
53271;SDS011;39160;48.580;7.756;2023-08-24T11:02:28;4.70;;;4.22;;
53271;SDS011;39160;48.580;7.756;2023-08-24T11:07:22;6.97;;;4.47;;
53271;SDS011;39160;48.580;7.756;2023-08-24T11:12:13;7.78;;;4.28;;
53271;SDS011;39160;48.580;7.756;2023-08-24T11:17:20;7.38;;;4.38;;
53271;SDS011;39160;48.580;7.756;2023-08-24T11:22:12;6.40;;;4.60;;
53271;SDS011;39160;48.580;7.756;2023-08-24T11:27:03;5.22;;;4.68;;
53271;SDS011;39160;48.580;7.756;2023-08-24T11:31:54;8.82;;;4.90;;
53271;SDS011;39160;48.580;7.756;2023-08-24T11:36:47;6.53;;;4.63;;
53271;SDS011;39160;48.580;7.756;2023-08-24T11:41:38;7.35;;;4.90;;
53271;SDS011;39160;48.580;7.756;2023-08-24T11:46:29;6.07;;;4.88;;
53271;SDS011;39160;48.580;7.756;2023-08-24T11:51:20;7.28;;;5.07;;
53271;SDS011;39160;48.580;7.756;2023-08-24T11:56:11;6.60;;;4.82;;
53271;SDS011;39160;48.580;7.756;2023-08-24T12:01:03;9.38;;;4.68;;
53271;SDS011;39160;48.580;7.756;2023-08-24T12:05:58;5.53;;;4.40;;
53271;SDS011;39160;48.580;7.756;2023-08-24T12:10:52;6.10;;;4.32;;
53271;SDS011;39160;48.580;7.756;2023-08-24T12:15:43;4.97;;;4.35;;
53271;SDS011;39160;48.580;7.756;2023-08-24T12:20:33;4.38;;;3.75;;
53271;SDS011;39160;48.580;7.756;2023-08-24T12:25:24;4.22;;;3.83;;
53271;SDS011;39160;48.580;7.756;2023-08-24T12:30:15;5.28;;;3.72;;
53271;SDS011;39160;48.580;7.756;2023-08-24T12:35:06;4.72;;;4.00;;
53271;SDS011;39160;48.580;7.756;2023-08-24T12:39:58;4.85;;;4.03;;
53271;SDS011;39160;48.580;7.756;2023-08-24T12:44:49;4.95;;;3.75;;
53271;SDS011;39160;48.580;7.756;2023-08-24T12:49:40;4.72;;;3.78;;
53271;SDS011;39160;48.580;7.756;2023-08-24T12:54:30;5.35;;;3.63;;
53271;SDS011;39160;48.580;7.756;2023-08-24T12:59:21;5.80;;;4.55;;
53271;SDS011;39160;48.580;7.756;2023-08-24T13:04:12;5.82;;;4.50;;
53271;SDS011;39160;48.580;7.756;2023-08-24T13:09:03;7.20;;;4.60;;
53271;SDS011;39160;48.580;7.756;2023-08-24T13:13:55;4.13;;;3.67;;
53271;SDS011;39160;48.580;7.756;2023-08-24T13:18:45;5.53;;;4.32;;
53271;SDS011;39160;48.580;7.756;2023-08-24T13:23:36;5.47;;;4.20;;
53271;SDS011;39160;48.580;7.756;2023-08-24T13:28:26;4.43;;;3.50;;
53271;SDS011;39160;48.580;7.756;2023-08-24T13:33:19;4.50;;;3.88;;
53271;SDS011;39160;48.580;7.756;2023-08-24T13:38:10;5.10;;;4.18;;
53271;SDS011;39160;48.580;7.756;2023-08-24T13:43:00;6.78;;;3.97;;
53271;SDS011;39160;48.580;7.756;2023-08-24T13:47:51;5.35;;;4.45;;
53271;SDS011;39160;48.580;7.756;2023-08-24T13:52:41;6.22;;;4.18;;
53271;SDS011;39160;48.580;7.756;2023-08-24T13:57:32;8.90;;;4.97;;
53271;SDS011;39160;48.580;7.756;2023-08-24T14:02:23;11.82;;;4.72;;
53271;SDS011;39160;48.580;7.756;2023-08-24T14:07:13;6.05;;;4.45;;
53271;SDS011;39160;48.580;7.756;2023-08-24T14:12:04;5.50;;;4.18;;
53271;SDS011;39160;48.580;7.756;2023-08-24T14:16:56;6.97;;;4.40;;
53271;SDS011;39160;48.580;7.756;2023-08-24T14:21:47;8.65;;;4.40;;
53271;SDS011;39160;48.580;7.756;2023-08-24T14:26:37;9.48;;;3.90;;
53271;SDS011;39160;48.580;7.756;2023-08-24T14:31:29;4.97;;;3.35;;
53271;SDS011;39160;48.580;7.756;2023-08-24T14:36:20;4.05;;;3.15;;
53271;SDS011;39160;48.580;7.756;2023-08-24T14:41:12;4.97;;;3.17;;
53271;SDS011;39160;48.580;7.756;2023-08-24T14:46:03;5.65;;;3.33;;
53271;SDS011;39160;48.580;7.756;2023-08-24T14:50:54;4.97;;;3.65;;
53271;SDS011;39160;48.580;7.756;2023-08-24T14:55:46;6.13;;;3.75;;
53271;SDS011;39160;48.580;7.756;2023-08-24T15:00:37;5.53;;;3.53;;
53271;SDS011;39160;48.580;7.756;2023-08-24T15:05:27;5.25;;;3.35;;
53271;SDS011;39160;48.580;7.756;2023-08-24T15:10:18;7.18;;;3.92;;
53271;SDS011;39160;48.580;7.756;2023-08-24T15:15:09;4.53;;;2.80;;
53271;SDS011;39160;48.580;7.756;2023-08-24T15:20:00;4.68;;;2.38;;
53271;SDS011;39160;48.580;7.756;2023-08-24T15:24:50;3.83;;;2.17;;
53271;SDS011;39160;48.580;7.756;2023-08-24T15:29:41;2.53;;;2.22;;
53271;SDS011;39160;48.580;7.756;2023-08-24T15:34:31;3.75;;;2.60;;
53271;SDS011;39160;48.580;7.756;2023-08-24T15:39:22;7.32;;;3.25;;
53271;SDS011;39160;48.580;7.756;2023-08-24T15:44:14;7.25;;;4.57;;
53271;SDS011;39160;48.580;7.756;2023-08-24T15:49:05;4.03;;;2.63;;
53271;SDS011;39160;48.580;7.756;2023-08-24T15:53:56;5.03;;;3.08;;
53271;SDS011;39160;48.580;7.756;2023-08-24T15:58:46;4.72;;;3.05;;
53271;SDS011;39160;48.580;7.756;2023-08-24T16:03:37;10.98;;;5.75;;
53271;SDS011;39160;48.580;7.756;2023-08-24T16:08:28;5.70;;;3.30;;
53271;SDS011;39160;48.580;7.756;2023-08-24T16:13:18;5.97;;;3.13;;
53271;SDS011;39160;48.580;7.756;2023-08-24T16:18:09;8.32;;;3.22;;
53271;SDS011;39160;48.580;7.756;2023-08-24T16:23:00;4.82;;;2.92;;
53271;SDS011;39160;48.580;7.756;2023-08-24T16:27:50;5.05;;;2.95;;
53271;SDS011;39160;48.580;7.756;2023-08-24T16:32:41;4.25;;;2.88;;
53271;SDS011;39160;48.580;7.756;2023-08-24T16:37:31;4.38;;;2.63;;
53271;SDS011;39160;48.580;7.756;2023-08-24T16:42:22;6.07;;;2.80;;
53271;SDS011;39160;48.580;7.756;2023-08-24T16:47:13;3.65;;;3.00;;
53271;SDS011;39160;48.580;7.756;2023-08-24T16:52:04;6.95;;;3.47;;
53271;SDS011;39160;48.580;7.756;2023-08-24T16:56:55;5.35;;;3.35;;
53271;SDS011;39160;48.580;7.756;2023-08-24T17:01:46;5.93;;;2.92;;
53271;SDS011;39160;48.580;7.756;2023-08-24T17:06:37;5.15;;;3.53;;
53271;SDS011;39160;48.580;7.756;2023-08-24T17:11:27;7.68;;;3.97;;
53271;SDS011;39160;48.580;7.756;2023-08-24T17:16:18;5.88;;;3.72;;
53271;SDS011;39160;48.580;7.756;2023-08-24T17:21:10;6.15;;;3.33;;
53271;SDS011;39160;48.580;7.756;2023-08-24T17:26:00;4.80;;;3.72;;
53271;SDS011;39160;48.580;7.756;2023-08-24T17:30:51;3.78;;;3.22;;
53271;SDS011;39160;48.580;7.756;2023-08-24T17:35:42;10.63;;;4.32;;
53271;SDS011;39160;48.580;7.756;2023-08-24T17:40:32;5.57;;;3.05;;
53271;SDS011;39160;48.580;7.756;2023-08-24T17:45:23;5.18;;;3.50;;
53271;SDS011;39160;48.580;7.756;2023-08-24T17:50:14;6.43;;;3.88;;
53271;SDS011;39160;48.580;7.756;2023-08-24T17:55:05;6.38;;;3.58;;
53271;SDS011;39160;48.580;7.756;2023-08-24T17:59:56;5.85;;;3.28;;
53271;SDS011;39160;48.580;7.756;2023-08-24T18:04:46;4.60;;;3.35;;
53271;SDS011;39160;48.580;7.756;2023-08-24T18:09:37;6.47;;;4.38;;
53271;SDS011;39160;48.580;7.756;2023-08-24T18:14:28;7.72;;;4.18;;
53271;SDS011;39160;48.580;7.756;2023-08-24T18:19:18;4.93;;;3.83;;
53271;SDS011;39160;48.580;7.756;2023-08-24T18:24:09;15.77;;;4.85;;
53271;SDS011;39160;48.580;7.756;2023-08-24T18:29:00;4.45;;;3.55;;
53271;SDS011;39160;48.580;7.756;2023-08-24T18:33:51;6.50;;;3.72;;
53271;SDS011;39160;48.580;7.756;2023-08-24T18:38:45;7.20;;;4.10;;
53271;SDS011;39160;48.580;7.756;2023-08-24T18:43:36;5.17;;;4.23;;
53271;SDS011;39160;48.580;7.756;2023-08-24T18:48:26;6.55;;;4.47;;
53271;SDS011;39160;48.580;7.756;2023-08-24T18:53:17;5.78;;;4.05;;
53271;SDS011;39160;48.580;7.756;2023-08-24T18:58:08;5.82;;;4.47;;
53271;SDS011;39160;48.580;7.756;2023-08-24T19:02:59;5.85;;;4.13;;
53271;SDS011;39160;48.580;7.756;2023-08-24T19:07:49;5.15;;;3.70;;
53271;SDS011;39160;48.580;7.756;2023-08-24T19:12:40;4.85;;;3.38;;
53271;SDS011;39160;48.580;7.756;2023-08-24T19:17:38;7.65;;;3.97;;
53271;SDS011;39160;48.580;7.756;2023-08-24T19:22:29;7.32;;;3.63;;
53271;SDS011;39160;48.580;7.756;2023-08-24T19:27:19;9.13;;;4.03;;
53271;SDS011;39160;48.580;7.756;2023-08-24T19:32:10;3.63;;;3.05;;
53271;SDS011;39160;48.580;7.756;2023-08-24T19:37:01;6.82;;;4.60;;
53271;SDS011;39160;48.580;7.756;2023-08-24T19:41:52;4.57;;;3.80;;
53271;SDS011;39160;48.580;7.756;2023-08-24T19:46:43;5.40;;;4.15;;
53271;SDS011;39160;48.580;7.756;2023-08-24T19:51:34;4.60;;;3.92;;
53271;SDS011;39160;48.580;7.756;2023-08-24T19:56:25;6.00;;;3.45;;
53271;SDS011;39160;48.580;7.756;2023-08-24T20:01:16;5.85;;;4.07;;
53271;SDS011;39160;48.580;7.756;2023-08-24T20:06:17;4.13;;;3.08;;
53271;SDS011;39160;48.580;7.756;2023-08-24T20:11:12;6.20;;;3.63;;
53271;SDS011;39160;48.580;7.756;2023-08-24T20:16:05;8.05;;;4.18;;
53271;SDS011;39160;48.580;7.756;2023-08-24T20:20:56;5.10;;;3.30;;
53271;SDS011;39160;48.580;7.756;2023-08-24T20:25:47;5.18;;;3.50;;
53271;SDS011;39160;48.580;7.756;2023-08-24T20:30:37;6.97;;;4.18;;
53271;SDS011;39160;48.580;7.756;2023-08-24T20:35:28;4.18;;;3.20;;
53271;SDS011;39160;48.580;7.756;2023-08-24T20:40:19;4.28;;;3.38;;
53271;SDS011;39160;48.580;7.756;2023-08-24T20:45:10;7.78;;;4.15;;
53271;SDS011;39160;48.580;7.756;2023-08-24T20:50:01;5.07;;;3.25;;
53271;SDS011;39160;48.580;7.756;2023-08-24T20:54:52;6.40;;;3.30;;
53271;SDS011;39160;48.580;7.756;2023-08-24T20:59:42;6.97;;;3.95;;
53271;SDS011;39160;48.580;7.756;2023-08-24T21:04:33;3.70;;;3.30;;
53271;SDS011;39160;48.580;7.756;2023-08-24T21:09:24;4.55;;;3.28;;
53271;SDS011;39160;48.580;7.756;2023-08-24T21:14:15;5.38;;;3.78;;
53271;SDS011;39160;48.580;7.756;2023-08-24T21:19:06;4.13;;;3.60;;
53271;SDS011;39160;48.580;7.756;2023-08-24T21:24:00;3.35;;;2.70;;
53271;SDS011;39160;48.580;7.756;2023-08-24T21:28:50;5.65;;;3.38;;
53271;SDS011;39160;48.580;7.756;2023-08-24T21:33:41;4.55;;;2.55;;
53271;SDS011;39160;48.580;7.756;2023-08-24T21:38:32;4.25;;;3.03;;
53271;SDS011;39160;48.580;7.756;2023-08-24T21:43:22;4.93;;;3.00;;
53271;SDS011;39160;48.580;7.756;2023-08-24T21:48:13;6.78;;;3.20;;
53271;SDS011;39160;48.580;7.756;2023-08-24T21:53:04;4.13;;;2.38;;
53271;SDS011;39160;48.580;7.756;2023-08-24T21:57:56;3.78;;;2.60;;
53271;SDS011;39160;48.580;7.756;2023-08-24T22:02:46;3.17;;;2.80;;
53271;SDS011;39160;48.580;7.756;2023-08-24T22:07:37;3.28;;;2.05;;
53271;SDS011;39160;48.580;7.756;2023-08-24T22:12:29;4.20;;;2.33;;
53271;SDS011;39160;48.580;7.756;2023-08-24T22:17:19;2.40;;;2.15;;
53271;SDS011;39160;48.580;7.756;2023-08-24T22:22:10;3.08;;;2.20;;
53271;SDS011;39160;48.580;7.756;2023-08-24T22:27:01;4.28;;;1.88;;
53271;SDS011;39160;48.580;7.756;2023-08-24T22:31:55;3.03;;;1.98;;
53271;SDS011;39160;48.580;7.756;2023-08-24T22:36:46;2.47;;;1.42;;
53271;SDS011;39160;48.580;7.756;2023-08-24T22:41:37;4.38;;;1.90;;
53271;SDS011;39160;48.580;7.756;2023-08-24T22:46:28;3.60;;;1.83;;
53271;SDS011;39160;48.580;7.756;2023-08-24T22:51:19;2.75;;;2.10;;
53271;SDS011;39160;48.580;7.756;2023-08-24T22:56:10;3.88;;;1.35;;
53271;SDS011;39160;48.580;7.756;2023-08-24T23:01:12;2.17;;;1.55;;
53271;SDS011;39160;48.580;7.756;2023-08-24T23:06:04;3.10;;;1.70;;
53271;SDS011;39160;48.580;7.756;2023-08-24T23:10:55;3.17;;;1.75;;
53271;SDS011;39160;48.580;7.756;2023-08-24T23:15:45;2.15;;;1.70;;
53271;SDS011;39160;48.580;7.756;2023-08-24T23:20:36;2.83;;;2.00;;
53271;SDS011;39160;48.580;7.756;2023-08-24T23:25:27;2.00;;;1.80;;
53271;SDS011;39160;48.580;7.756;2023-08-24T23:30:18;4.40;;;1.88;;
53271;SDS011;39160;48.580;7.756;2023-08-24T23:35:08;3.33;;;1.85;;
53271;SDS011;39160;48.580;7.756;2023-08-24T23:40:01;3.58;;;2.15;;
53271;SDS011;39160;48.580;7.756;2023-08-24T23:44:53;2.17;;;1.60;;
53271;SDS011;39160;48.580;7.756;2023-08-24T23:49:44;4.10;;;2.33;;
53271;SDS011;39160;48.580;7.756;2023-08-24T23:54:38;3.30;;;1.90;;
53271;SDS011;39160;48.580;7.756;2023-08-24T23:59:28;4.82;;;2.08;;
